Time;durP1;ratioP1;P1;durP2;ratioP2;P2;SDS_P1;SDS_P2;PMS_P1;PMS_P2;Temp;Humidity;BMP_temperature;BMP_pressure;BME280_temperature;BME280_humidity;BME280_pressure;Samples;Min_cycle;Max_cycle;Signal;HPM_P1;HPM_P2
2022/05/01 00:02:02;;;;;;;3.78;2.55;;;;;;;;;;12654812;23;20204;-76
2022/05/01 00:07:04;;;;;;;3.00;2.13;;;;;;;;;;12657980;23;20529;-76
2022/05/01 00:12:05;;;;;;;2.45;2.17;;;;;;;;;;12657068;23;20184;-77
2022/05/01 00:17:07;;;;;;;4.82;2.20;;;;;;;;;;12656366;23;20181;-76
2022/05/01 00:22:08;;;;;;;2.13;1.67;;;;;;;;;;12654544;23;20192;-76
2022/05/01 00:27:09;;;;;;;2.95;2.03;;;;;;;;;;12652424;23;20533;-77
2022/05/01 00:32:10;;;;;;;2.40;2.20;;;;;;;;;;12653545;23;20201;-77
2022/05/01 00:37:11;;;;;;;2.80;1.85;;;;;;;;;;12654510;23;20275;-77
2022/05/01 00:42:12;;;;;;;4.05;2.13;;;;;;;;;;12653597;23;20564;-77
2022/05/01 00:47:13;;;;;;;3.08;2.65;;;;;;;;;;12655454;23;20204;-78
2022/05/01 00:52:14;;;;;;;2.22;1.73;;;;;;;;;;12636335;23;20204;-77
2022/05/01 00:57:16;;;;;;;2.00;1.83;;;;;;;;;;12656813;23;20271;-78
2022/05/01 01:02:17;;;;;;;2.20;2.10;;;;;;;;;;12654498;23;20216;-78
2022/05/01 01:07:18;;;;;;;2.58;2.42;;;;;;;;;;12679668;23;20196;-78
2022/05/01 01:17:46;;;;;;;2.28;2.17;;;;;;;;;;12657913;23;20177;-78
2022/05/01 01:22:49;;;;;;;5.88;2.78;;;;;;;;;;12682381;23;20231;-78
2022/05/01 01:27:51;;;;;;;4.88;2.80;;;;;;;;;;12658351;23;20201;-76
2022/05/01 01:32:52;;;;;;;3.05;2.75;;;;;;;;;;12681568;23;20614;-70
2022/05/01 01:37:54;;;;;;;2.83;2.60;;;;;;;;;;12659929;23;20177;-78
2022/05/01 01:42:57;;;;;;;3.15;2.90;;;;;;;;;;12658713;23;20681;-78
2022/05/01 01:48:09;;;;;;;3.63;2.60;;;;;;;;;;12658947;23;20188;-77
2022/05/01 01:53:11;;;;;;;3.45;2.80;;;;;;;;;;12659288;23;20184;-77
2022/05/01 01:58:12;;;;;;;3.08;2.60;;;;;;;;;;12658560;23;20493;-78
2022/05/01 02:03:13;;;;;;;2.80;2.60;;;;;;;;;;12657470;23;20581;-79
2022/05/01 02:08:14;;;;;;;4.57;2.65;;;;;;;;;;12682528;23;20201;-77
2022/05/01 02:13:16;;;;;;;4.07;2.70;;;;;;;;;;12658369;23;20189;-78
2022/05/01 02:18:17;;;;;;;3.17;2.75;;;;;;;;;;12659958;23;20402;-78
2022/05/01 02:23:19;;;;;;;4.60;2.88;;;;;;;;;;12660939;23;20181;-78
2022/05/01 02:28:20;;;;;;;6.85;3.33;;;;;;;;;;12659704;23;20200;-78
2022/05/01 02:33:21;;;;;;;5.18;3.40;;;;;;;;;;12656250;23;20200;-78
2022/05/01 02:38:23;;;;;;;4.65;3.85;;;;;;;;;;12681775;23;20540;-78
2022/05/01 02:43:26;;;;;;;8.75;4.05;;;;;;;;;;12657324;23;20275;-78
2022/05/01 02:48:27;;;;;;;8.13;3.97;;;;;;;;;;12657488;23;20200;-77
2022/05/01 02:53:28;;;;;;;7.45;3.13;;;;;;;;;;12656067;23;20191;-76
2022/05/01 02:58:30;;;;;;;2.97;2.78;;;;;;;;;;12658044;23;20207;-77
2022/05/01 03:03:31;;;;;;;3.88;3.25;;;;;;;;;;12655880;23;20308;-77
2022/05/01 03:08:32;;;;;;;3.05;2.78;;;;;;;;;;12656802;23;20539;-77
2022/05/01 03:13:33;;;;;;;4.57;3.58;;;;;;;;;;12655314;23;20534;-76
2022/05/01 03:23:53;;;;;;;6.07;5.57;;;;;;;;;;12656198;23;20176;-77
2022/05/01 03:28:55;;;;;;;6.28;5.20;;;;;;;;;;12654801;23;20906;-79
2022/05/01 03:33:56;;;;;;;7.60;5.70;;;;;;;;;;12658312;23;20686;-77
2022/05/01 03:38:57;;;;;;;6.03;5.13;;;;;;;;;;12658928;23;20180;-76
2022/05/01 03:43:59;;;;;;;6.88;5.00;;;;;;;;;;12658324;23;20212;-77
2022/05/01 03:49:00;;;;;;;6.60;4.65;;;;;;;;;;12659080;23;20197;-77
2022/05/01 03:54:02;;;;;;;6.13;4.85;;;;;;;;;;12656554;23;20177;-77
2022/05/01 03:59:04;;;;;;;4.57;4.18;;;;;;;;;;12658935;23;20489;-77
2022/05/01 04:04:05;;;;;;;5.40;3.97;;;;;;;;;;12658233;23;20264;-76
2022/05/01 04:09:06;;;;;;;4.20;3.88;;;;;;;;;;12658582;23;20204;-76
2022/05/01 04:14:07;;;;;;;4.78;4.28;;;;;;;;;;12631110;23;20173;-78
2022/05/01 04:19:10;;;;;;;4.35;3.92;;;;;;;;;;12655746;23;20180;-77
2022/05/01 04:24:11;;;;;;;3.67;3.38;;;;;;;;;;12657433;23;20188;-77
2022/05/01 04:34:32;;;;;;;4.00;3.70;;;;;;;;;;12652693;23;20224;-76
2022/05/01 04:39:33;;;;;;;4.32;3.83;;;;;;;;;;12655700;23;20188;-77
2022/05/01 04:44:34;;;;;;;5.25;4.13;;;;;;;;;;12657815;23;20212;-76
2022/05/01 04:49:35;;;;;;;3.60;3.50;;;;;;;;;;12658052;23;20516;-76
2022/05/01 04:54:38;;;;;;;5.15;3.72;;;;;;;;;;12658935;23;20193;-76
2022/05/01 04:59:40;;;;;;;3.67;3.38;;;;;;;;;;12657699;23;20211;-77
2022/05/01 05:04:42;;;;;;;3.15;3.05;;;;;;;;;;12654671;23;20288;-76
2022/05/01 05:09:55;;;;;;;6.72;3.97;;;;;;;;;;12657266;23;20725;-76
2022/05/01 05:14:59;;;;;;;4.60;4.15;;;;;;;;;;12628874;23;20483;-77
2022/05/01 05:20:00;;;;;;;4.15;3.85;;;;;;;;;;12657512;23;20627;-77
2022/05/01 05:25:02;;;;;;;6.20;4.30;;;;;;;;;;12656033;23;20181;-76
2022/05/01 05:30:03;;;;;;;4.63;4.30;;;;;;;;;;12632934;23;20196;-77
2022/05/01 05:35:05;;;;;;;4.40;4.10;;;;;;;;;;12652295;23;20255;-77
2022/05/01 05:40:06;;;;;;;7.65;4.30;;;;;;;;;;12658530;23;20184;-78
2022/05/01 05:45:08;;;;;;;4.30;4.00;;;;;;;;;;12660687;23;20646;-76
2022/05/01 05:50:09;;;;;;;6.35;4.55;;;;;;;;;;12659648;23;20210;-77
2022/05/01 05:55:10;;;;;;;4.68;4.38;;;;;;;;;;12659346;23;20183;-77
2022/05/01 06:00:11;;;;;;;6.88;5.15;;;;;;;;;;12658720;23;20280;-77
2022/05/01 06:05:15;;;;;;;9.52;4.57;;;;;;;;;;12659620;23;20177;-77
2022/05/01 06:10:16;;;;;;;5.45;4.85;;;;;;;;;;12658911;23;20283;-77
2022/05/01 06:15:17;;;;;;;4.82;4.55;;;;;;;;;;12633943;23;20189;-77
2022/05/01 06:20:20;;;;;;;5.35;4.85;;;;;;;;;;12662110;23;20824;-76
2022/05/01 06:25:21;;;;;;;5.60;5.10;;;;;;;;;;12668178;23;20293;-77
2022/05/01 06:30:22;;;;;;;9.20;4.68;;;;;;;;;;12665709;23;20235;-78
2022/05/01 06:35:24;;;;;;;6.30;5.63;;;;;;;;;;12663392;23;20195;-77
2022/05/01 06:40:25;;;;;;;6.53;5.00;;;;;;;;;;12666801;23;20336;-80
2022/05/01 06:45:27;;;;;;;6.32;5.80;;;;;;;;;;12627812;23;20870;-70
2022/05/01 06:50:28;;;;;;;5.40;5.05;;;;;;;;;;12666240;23;20197;-75
2022/05/01 06:55:30;;;;;;;5.68;5.25;;;;;;;;;;12667347;23;20185;-77
2022/05/01 07:00:31;;;;;;;7.63;5.13;;;;;;;;;;12667741;23;20196;-77
2022/05/01 07:05:32;;;;;;;6.47;5.20;;;;;;;;;;12667691;23;20192;-77
2022/05/01 07:10:33;;;;;;;4.97;4.68;;;;;;;;;;12628628;23;20581;-77
2022/05/01 07:15:34;;;;;;;9.32;5.50;;;;;;;;;;12660031;23;20291;-77
2022/05/01 07:20:35;;;;;;;4.85;4.65;;;;;;;;;;12661737;23;20669;-77
2022/05/01 07:25:36;;;;;;;5.43;4.70;;;;;;;;;;12655425;23;20252;-78
2022/05/01 07:30:37;;;;;;;5.15;4.70;;;;;;;;;;12662104;23;20215;-77
2022/05/01 07:35:39;;;;;;;4.75;4.45;;;;;;;;;;12659068;23;20177;-77
2022/05/01 07:40:40;;;;;;;5.45;4.03;;;;;;;;;;12643699;23;20252;-79
2022/05/01 07:45:43;;;;;;;4.30;4.00;;;;;;;;;;12653717;23;20208;-78
2022/05/01 07:50:44;;;;;;;4.47;4.18;;;;;;;;;;12654719;23;20659;-77
2022/05/01 07:55:45;;;;;;;9.05;4.60;;;;;;;;;;12655825;23;20191;-79
2022/05/01 08:00:47;;;;;;;4.43;4.13;;;;;;;;;;12630880;23;20197;-78
2022/05/01 08:05:48;;;;;;;4.88;4.45;;;;;;;;;;12663768;23;20192;-76
2022/05/01 08:10:49;;;;;;;4.47;4.10;;;;;;;;;;12665902;23;20188;-77
2022/05/01 08:15:50;;;;;;;4.40;4.10;;;;;;;;;;12666430;23;20203;-76
2022/05/01 08:21:09;;;;;;;4.43;4.13;;;;;;;;;;12664882;23;20550;-77
2022/05/01 08:26:11;;;;;;;4.30;3.90;;;;;;;;;;12666296;23;20181;-79
2022/05/01 08:31:13;;;;;;;4.72;4.25;;;;;;;;;;12665552;23;20207;-78
2022/05/01 08:36:14;;;;;;;4.57;4.10;;;;;;;;;;12667735;23;20192;-76
2022/05/01 08:41:16;;;;;;;7.10;5.22;;;;;;;;;;12668010;23;20256;-78
2022/05/01 08:46:20;;;;;;;4.63;4.20;;;;;;;;;;12666336;23;20207;-77
2022/05/01 08:51:21;;;;;;;4.32;3.92;;;;;;;;;;12665691;23;20235;-78
2022/05/01 08:56:23;;;;;;;4.40;3.75;;;;;;;;;;12669320;23;20173;-77
2022/05/01 09:01:24;;;;;;;4.70;3.90;;;;;;;;;;12672852;23;20208;-78
2022/05/01 09:06:25;;;;;;;5.38;3.67;;;;;;;;;;12669263;23;20195;-77
2022/05/01 09:17:06;;;;;;;5.13;4.10;;;;;;;;;;12668105;23;20219;-78
2022/05/01 09:22:08;;;;;;;6.03;3.70;;;;;;;;;;12620332;23;20184;-78
2022/05/01 09:27:25;;;;;;;5.50;3.50;;;;;;;;;;12669592;23;20271;-80
2022/05/01 09:32:36;;;;;;;3.97;3.67;;;;;;;;;;12665724;23;20243;-78
2022/05/01 09:37:37;;;;;;;6.07;4.07;;;;;;;;;;12642848;23;20536;-78
2022/05/01 09:42:38;;;;;;;6.85;3.78;;;;;;;;;;12664743;23;20536;-78
2022/05/01 09:47:43;;;;;;;5.15;3.22;;;;;;;;;;12641222;23;20192;-77
2022/05/01 09:52:54;;;;;;;4.05;3.50;;;;;;;;;;12666304;23;20261;-79
2022/05/01 09:58:11;;;;;;;3.60;3.28;;;;;;;;;;12666123;23;20192;-78
2022/05/01 10:03:29;;;;;;;2.92;2.75;;;;;;;;;;12637177;23;20228;-77
2022/05/01 10:08:30;;;;;;;4.97;3.10;;;;;;;;;;12664340;23;20196;-77
2022/05/01 10:13:32;;;;;;;3.47;3.17;;;;;;;;;;12638650;23;20207;-78
2022/05/01 10:18:33;;;;;;;3.40;2.80;;;;;;;;;;12663462;23;20532;-77
2022/05/01 10:23:35;;;;;;;3.38;3.13;;;;;;;;;;12662946;23;20193;-78
2022/05/01 10:28:52;;;;;;;3.67;3.45;;;;;;;;;;12660510;23;20197;-77
2022/05/01 10:34:10;;;;;;;3.50;3.33;;;;;;;;;;12661317;23;20216;-77
2022/05/01 10:39:17;;;;;;;6.07;3.40;;;;;;;;;;12662913;23;20180;-77
2022/05/01 10:44:34;;;;;;;5.00;3.90;;;;;;;;;;12636216;23;20209;-77
2022/05/01 10:49:37;;;;;;;4.75;4.50;;;;;;;;;;12661022;23;20293;-76
2022/05/01 10:54:38;;;;;;;4.55;4.15;;;;;;;;;;12657875;23;20181;-77
2022/05/01 10:59:46;;;;;;;8.23;3.80;;;;;;;;;;12661867;23;20188;-77
2022/05/01 11:04:47;;;;;;;4.88;3.70;;;;;;;;;;12659278;23;20205;-77
2022/05/01 11:09:49;;;;;;;4.82;4.00;;;;;;;;;;12659396;23;20193;-77
2022/05/01 11:14:54;;;;;;;4.10;3.70;;;;;;;;;;12661508;23;20607;-77
2022/05/01 11:20:04;;;;;;;4.68;3.10;;;;;;;;;;12635247;23;20185;-77
2022/05/01 11:25:10;;;;;;;4.15;3.60;;;;;;;;;;12661265;23;20244;-78
2022/05/01 11:30:13;;;;;;;3.75;3.40;;;;;;;;;;12660552;23;20196;-78
2022/05/01 11:35:14;;;;;;;3.90;3.55;;;;;;;;;;12633585;23;20922;-77
2022/05/01 11:40:20;;;;;;;3.38;3.20;;;;;;;;;;12660605;23;20581;-77
2022/05/01 11:45:23;;;;;;;4.03;3.83;;;;;;;;;;12660098;23;20295;-77
2022/05/01 11:50:24;;;;;;;3.83;3.30;;;;;;;;;;12633950;23;20248;-76
2022/05/01 12:02:24;;;;;;;3.30;3.10;;;;;;;;;;12657559;23;20181;-77
2022/05/01 12:06:07;;;;;;;8.38;3.33;;;;;;;;;;12657406;23;20185;-76
2022/05/01 12:11:09;;;;;;;3.30;3.13;;;;;;;;;;12659424;23;20188;-77
2022/05/01 12:16:11;;;;;;;2.40;2.30;;;;;;;;;;12659194;23;20173;-77
2022/05/01 12:21:27;;;;;;;3.65;3.38;;;;;;;;;;12632697;23;20232;-77
2022/05/01 12:26:29;;;;;;;3.10;2.80;;;;;;;;;;12658951;23;20203;-77
2022/05/01 12:31:31;;;;;;;3.10;2.92;;;;;;;;;;12657747;23;20905;-76
2022/05/01 12:36:32;;;;;;;3.28;3.08;;;;;;;;;;12659173;23;20193;-75
2022/05/01 12:46:53;;;;;;;3.10;2.90;;;;;;;;;;12598536;23;20607;-77
2022/05/01 12:51:54;;;;;;;3.80;3.50;;;;;;;;;;12596034;23;20628;-77
2022/05/01 12:56:55;;;;;;;3.58;3.28;;;;;;;;;;12599388;23;20193;-77
2022/05/01 13:01:57;;;;;;;4.05;3.05;;;;;;;;;;12597575;23;20205;-77
2022/05/01 13:06:58;;;;;;;2.95;2.85;;;;;;;;;;12586797;23;20264;-78
2022/05/01 13:11:59;;;;;;;3.35;3.15;;;;;;;;;;12597247;23;20170;-77
2022/05/01 13:17:08;;;;;;;3.95;3.28;;;;;;;;;;12599164;23;20230;-77
2022/05/01 13:22:09;;;;;;;3.22;3.03;;;;;;;;;;12597803;23;20182;-78
2022/05/01 13:27:12;;;;;;;6.10;3.05;;;;;;;;;;12595801;23;20201;-77
2022/05/01 13:32:18;;;;;;;3.60;3.33;;;;;;;;;;12603208;23;20205;-78
2022/05/01 13:37:19;;;;;;;3.38;2.95;;;;;;;;;;12593069;23;20197;-76
2022/05/01 13:47:40;;;;;;;3.90;3.47;;;;;;;;;;12637180;23;20706;-76
2022/05/01 13:52:41;;;;;;;2.92;2.83;;;;;;;;;;12661118;23;20173;-77
2022/05/01 13:57:43;;;;;;;3.47;3.38;;;;;;;;;;12660413;23;20574;-76
2022/05/01 14:02:44;;;;;;;8.40;3.50;;;;;;;;;;12660098;23;20227;-76
2022/05/01 14:07:45;;;;;;;12.32;3.88;;;;;;;;;;12661527;23;20204;-76
2022/05/01 14:12:46;;;;;;;5.00;3.63;;;;;;;;;;12659586;23;20180;-76
2022/05/01 14:17:47;;;;;;;5.10;3.33;;;;;;;;;;12662626;23;20295;-76
2022/05/01 14:22:49;;;;;;;3.40;3.15;;;;;;;;;;12661292;23;20189;-76
2022/05/01 14:27:50;;;;;;;4.80;2.65;;;;;;;;;;12660539;23;20197;-77
2022/05/01 14:32:53;;;;;;;2.90;2.70;;;;;;;;;;12658877;23;20197;-76
2022/05/01 14:38:06;;;;;;;3.33;3.03;;;;;;;;;;12659396;23;20181;-77
2022/05/01 14:43:12;;;;;;;4.60;4.22;;;;;;;;;;12657540;23;20212;-76
2022/05/01 14:48:13;;;;;;;6.30;5.70;;;;;;;;;;12660964;23;20196;-76
2022/05/01 14:53:14;;;;;;;3.20;3.08;;;;;;;;;;12658792;23;20531;-75
2022/05/01 15:09:00;;;;;;;3.20;3.00;;;;;;;;;;12662436;23;20192;-77
2022/05/01 15:14:01;;;;;;;3.72;3.33;;;;;;;;;;12662276;23;20615;-77
2022/05/01 15:19:07;;;;;;;4.25;3.95;;;;;;;;;;12664760;23;20204;-76
2022/05/01 15:24:09;;;;;;;6.45;3.65;;;;;;;;;;12663616;23;20196;-72
2022/05/01 15:29:11;;;;;;;3.10;2.90;;;;;;;;;;12660528;23;20192;-73
2022/05/01 15:34:14;;;;;;;3.78;3.47;;;;;;;;;;12661647;23;20624;-76
2022/05/01 15:39:18;;;;;;;5.45;4.65;;;;;;;;;;12667640;23;20184;-78
2022/05/01 15:44:20;;;;;;;3.45;2.95;;;;;;;;;;12666475;23;20618;-78
2022/05/01 15:54:43;;;;;;;4.25;3.83;;;;;;;;;;12666048;23;20197;-78
2022/05/01 15:59:45;;;;;;;4.10;2.90;;;;;;;;;;12665706;23;20187;-78
2022/05/01 16:04:46;;;;;;;7.28;3.35;;;;;;;;;;12662340;23;20205;-77
2022/05/01 16:09:53;;;;;;;6.30;3.30;;;;;;;;;;12663470;23;20220;-77
2022/05/01 16:14:58;;;;;;;3.53;3.03;;;;;;;;;;12661301;23;20223;-77
2022/05/01 16:20:00;;;;;;;3.30;3.00;;;;;;;;;;12664077;23;20199;-77
2022/05/01 16:25:08;;;;;;;2.83;2.63;;;;;;;;;;12663616;23;20204;-77
2022/05/01 16:30:11;;;;;;;3.28;3.00;;;;;;;;;;12663240;23;20567;-76
2022/05/01 16:35:12;;;;;;;3.13;2.92;;;;;;;;;;12629891;23;20659;-76
2022/05/01 16:40:15;;;;;;;4.63;3.50;;;;;;;;;;12664430;23;20195;-76
2022/05/01 16:45:16;;;;;;;3.45;3.25;;;;;;;;;;12662265;23;20284;-76
2022/05/01 16:50:20;;;;;;;4.47;3.88;;;;;;;;;;12662751;23;20189;-76
2022/05/01 16:55:25;;;;;;;3.70;3.50;;;;;;;;;;12659742;23;20191;-76
2022/05/01 17:00:27;;;;;;;4.85;3.35;;;;;;;;;;12663469;23;20208;-73
2022/05/01 17:05:28;;;;;;;6.93;6.45;;;;;;;;;;12660487;23;20189;-75
2022/05/01 17:10:35;;;;;;;7.25;5.38;;;;;;;;;;12637850;23;20695;-75
2022/05/01 17:15:37;;;;;;;3.72;2.92;;;;;;;;;;12660196;23;20185;-76
2022/05/01 17:20:41;;;;;;;4.32;4.00;;;;;;;;;;12634052;23;20185;-75
2022/05/01 17:25:57;;;;;;;4.00;3.70;;;;;;;;;;12634938;23;20184;-75
2022/05/01 17:31:06;;;;;;;4.82;4.43;;;;;;;;;;12667222;23;20287;-75
2022/05/01 17:36:07;;;;;;;8.18;3.78;;;;;;;;;;12645102;23;20177;-74
2022/05/01 17:41:11;;;;;;;3.90;3.63;;;;;;;;;;12665933;23;20181;-70
2022/05/01 17:46:13;;;;;;;11.38;9.02;;;;;;;;;;12636006;23;20209;-78
2022/05/01 17:51:15;;;;;;;5.13;4.68;;;;;;;;;;12663862;23;20272;-74
2022/05/01 17:56:16;;;;;;;5.03;4.38;;;;;;;;;;12663291;23;20194;-72
2022/05/01 18:01:21;;;;;;;5.15;3.28;;;;;;;;;;12661502;23;20208;-75
2022/05/01 18:11:43;;;;;;;3.38;3.20;;;;;;;;;;12659344;23;20189;-73
2022/05/01 18:17:04;;;;;;;4.20;3.38;;;;;;;;;;12658591;23;20243;-76
2022/05/01 18:22:10;;;;;;;5.07;3.45;;;;;;;;;;12655480;23;20200;-76
2022/05/01 18:27:16;;;;;;;4.18;3.10;;;;;;;;;;12664950;23;20193;-76
2022/05/01 18:32:30;;;;;;;4.75;3.28;;;;;;;;;;12665907;23;20211;-76
2022/05/01 18:37:36;;;;;;;5.68;3.35;;;;;;;;;;12663766;23;20216;-76
2022/05/01 18:42:37;;;;;;;4.15;3.45;;;;;;;;;;12665549;23;20212;-75
2022/05/01 18:47:44;;;;;;;4.07;3.75;;;;;;;;;;12667081;23;20208;-76
2022/05/01 18:52:46;;;;;;;3.80;3.60;;;;;;;;;;12665450;23;20208;-77
2022/05/01 18:57:47;;;;;;;4.55;4.22;;;;;;;;;;12663962;23;20188;-76
2022/05/01 19:02:48;;;;;;;7.50;3.97;;;;;;;;;;12662141;23;20268;-76
2022/05/01 19:08:09;;;;;;;5.03;3.83;;;;;;;;;;12661148;23;20235;-75
2022/05/01 19:13:10;;;;;;;4.53;3.22;;;;;;;;;;12665453;23;20188;-75
2022/05/01 19:18:11;;;;;;;6.47;3.38;;;;;;;;;;12662214;23;20184;-75
2022/05/01 19:23:24;;;;;;;2.95;2.65;;;;;;;;;;12664401;23;20200;-75
2022/05/01 19:28:44;;;;;;;3.55;3.33;;;;;;;;;;12663972;23;20212;-76
2022/05/01 19:33:47;;;;;;;4.88;3.50;;;;;;;;;;12661395;23;20212;-76
2022/05/01 19:39:07;;;;;;;3.60;3.30;;;;;;;;;;12663624;23;20336;-75
2022/05/01 19:44:22;;;;;;;3.78;3.65;;;;;;;;;;12661170;23;20236;-75
2022/05/01 19:54:48;;;;;;;4.18;3.78;;;;;;;;;;12665092;23;20181;-76
2022/05/01 19:59:50;;;;;;;3.95;3.58;;;;;;;;;;12661660;23;20192;-75
2022/05/01 20:04:52;;;;;;;6.18;4.70;;;;;;;;;;12663572;23;20200;-76
2022/05/01 20:09:54;;;;;;;7.53;4.70;;;;;;;;;;12666574;23;20216;-76
2022/05/01 20:14:55;;;;;;;5.78;5.20;;;;;;;;;;12665183;23;20251;-76
2022/05/01 20:20:26;;;;;;;5.90;5.50;;;;;;;;;;12635534;23;20587;-75
2022/05/01 20:25:30;;;;;;;5.45;4.90;;;;;;;;;;12627188;23;20192;-69
2022/05/01 20:30:50;;;;;;;6.30;5.13;;;;;;;;;;12632146;23;20692;-73
2022/05/01 20:36:02;;;;;;;5.28;4.88;;;;;;;;;;12630546;23;20263;-78
2022/05/01 20:41:05;;;;;;;5.95;5.50;;;;;;;;;;12662514;23;20192;-76
2022/05/01 20:46:13;;;;;;;6.78;6.28;;;;;;;;;;12659976;23;20589;-78
2022/05/01 20:51:15;;;;;;;5.97;5.53;;;;;;;;;;12633938;23;20298;-75
2022/05/01 20:56:16;;;;;;;5.32;4.93;;;;;;;;;;12660673;23;20236;-75
2022/05/01 21:01:18;;;;;;;7.78;6.28;;;;;;;;;;12662206;23;20235;-75
2022/05/01 21:06:19;;;;;;;8.27;5.13;;;;;;;;;;12666625;23;20188;-75
2022/05/01 21:11:20;;;;;;;6.85;6.25;;;;;;;;;;12662620;23;20259;-75
2022/05/01 21:16:22;;;;;;;9.07;6.20;;;;;;;;;;12665846;23;20184;-75
2022/05/01 21:21:23;;;;;;;7.90;6.05;;;;;;;;;;12640850;23;20216;-75
2022/05/01 21:26:24;;;;;;;7.53;5.88;;;;;;;;;;12667220;23;20248;-75
2022/05/01 21:36:45;;;;;;;5.63;5.22;;;;;;;;;;12668337;23;20193;-75
2022/05/01 21:41:46;;;;;;;5.45;5.03;;;;;;;;;;12667020;23;20242;-75
2022/05/01 21:46:47;;;;;;;6.10;5.20;;;;;;;;;;12664962;23;20197;-75
2022/05/01 21:51:48;;;;;;;5.22;4.93;;;;;;;;;;12665188;23;20177;-75
2022/05/01 21:56:49;;;;;;;5.85;5.50;;;;;;;;;;12666830;23;20181;-75
2022/05/01 22:01:50;;;;;;;5.78;5.22;;;;;;;;;;12662733;23;20829;-75
2022/05/01 22:06:51;;;;;;;6.05;5.53;;;;;;;;;;12663105;23;20197;-75
2022/05/01 22:11:53;;;;;;;6.38;5.32;;;;;;;;;;12661054;23;20185;-75
2022/05/01 22:17:08;;;;;;;5.30;5.00;;;;;;;;;;12665135;23;20704;-74
2022/05/01 22:22:10;;;;;;;5.47;5.00;;;;;;;;;;12666482;23;20632;-75
2022/05/01 22:27:12;;;;;;;5.90;5.40;;;;;;;;;;12666104;23;20185;-75
2022/05/01 22:32:13;;;;;;;5.68;5.32;;;;;;;;;;12667359;23;20229;-75
2022/05/01 22:37:29;;;;;;;6.25;5.70;;;;;;;;;;12669560;23;20671;-75
2022/05/01 22:42:30;;;;;;;6.10;5.50;;;;;;;;;;12668394;23;20259;-74
2022/05/01 22:47:31;;;;;;;5.43;5.07;;;;;;;;;;12667455;23;20276;-75
2022/05/01 22:52:32;;;;;;;5.95;5.35;;;;;;;;;;12667282;23;20643;-74
2022/05/01 22:57:33;;;;;;;6.18;5.68;;;;;;;;;;12666937;23;20247;-75
2022/05/01 23:02:35;;;;;;;7.75;5.60;;;;;;;;;;12666204;23;20212;-75
2022/05/01 23:07:36;;;;;;;6.30;5.82;;;;;;;;;;12666489;23;20594;-75
2022/05/01 23:12:38;;;;;;;6.65;6.15;;;;;;;;;;12663664;23;20239;-75
2022/05/01 23:17:47;;;;;;;7.28;5.85;;;;;;;;;;12663978;23;20251;-75
2022/05/01 23:22:49;;;;;;;7.07;6.57;;;;;;;;;;12664009;23;20195;-74
2022/05/01 23:27:50;;;;;;;7.20;5.82;;;;;;;;;;12662700;23;20228;-75
2022/05/01 23:32:52;;;;;;;7.07;5.63;;;;;;;;;;12663180;23;20196;-75
2022/05/01 23:37:54;;;;;;;7.88;6.25;;;;;;;;;;12664933;23;20193;-74
2022/05/01 23:42:55;;;;;;;6.05;5.45;;;;;;;;;;12663799;23;20231;-75
2022/05/01 23:47:57;;;;;;;5.32;4.93;;;;;;;;;;12663944;23;20643;-75
2022/05/01 23:52:58;;;;;;;8.38;5.88;;;;;;;;;;12664237;23;20982;-75
2022/05/01 23:58:00;;;;;;;6.95;6.45;;;;;;;;;;12661790;23;20576;-75
